sensor_id;sensor_type;location;lat;lon;timestamp;pressure;altitude;pressure_sealevel;temperature;humidity
15529;BME280;7866;52.280;9.500;2022-09-29T00:04:58;98767.41;;;8.90;87.81
15529;BME280;7866;52.280;9.500;2022-09-29T00:10:00;98766.19;;;8.93;88.15
15529;BME280;7866;52.280;9.500;2022-09-29T00:15:04;98759.41;;;8.90;88.12
15529;BME280;7866;52.280;9.500;2022-09-29T00:20:06;98762.09;;;8.90;88.65
15529;BME280;7866;52.280;9.500;2022-09-29T00:25:09;98768.03;;;8.92;88.64
15529;BME280;7866;52.280;9.500;2022-09-29T00:30:12;98769.88;;;8.92;89.10
15529;BME280;7866;52.280;9.500;2022-09-29T00:35:14;98766.34;;;8.84;88.65
15529;BME280;7866;52.280;9.500;2022-09-29T00:40:17;98770.25;;;8.82;89.42
15529;BME280;7866;52.280;9.500;2022-09-29T00:45:21;98770.03;;;8.83;88.91
15529;BME280;7866;52.280;9.500;2022-09-29T00:50:27;98767.56;;;8.82;88.97
15529;BME280;7866;52.280;9.500;2022-09-29T00:55:35;98766.94;;;8.80;89.30
15529;BME280;7866;52.280;9.500;2022-09-29T01:00:40;98777.38;;;8.75;89.10
15529;BME280;7866;52.280;9.500;2022-09-29T01:05:45;98774.06;;;8.73;89.28
15529;BME280;7866;52.280;9.500;2022-09-29T01:10:50;98758.06;;;8.73;89.16
15529;BME280;7866;52.280;9.500;2022-09-29T01:15:53;98759.47;;;8.69;89.66
15529;BME280;7866;52.280;9.500;2022-09-29T01:21:02;98763.00;;;8.76;89.69
15529;BME280;7866;52.280;9.500;2022-09-29T01:31:37;98762.84;;;8.84;89.54
15529;BME280;7866;52.280;9.500;2022-09-29T01:36:47;98763.66;;;8.84;89.57
15529;BME280;7866;52.280;9.500;2022-09-29T01:41:57;98774.19;;;8.93;89.78
15529;BME280;7866;52.280;9.500;2022-09-29T01:47:04;98770.91;;;8.97;89.38
15529;BME280;7866;52.280;9.500;2022-09-29T01:52:11;98770.53;;;9.00;89.45
15529;BME280;7866;52.280;9.500;2022-09-29T01:57:17;98764.22;;;9.08;89.17
15529;BME280;7866;52.280;9.500;2022-09-29T02:02:26;98768.72;;;9.07;89.46
15529;BME280;7866;52.280;9.500;2022-09-29T02:07:35;98766.88;;;9.08;89.46
15529;BME280;7866;52.280;9.500;2022-09-29T02:12:38;98766.44;;;9.04;89.58
15529;BME280;7866;52.280;9.500;2022-09-29T02:17:45;98767.25;;;8.98;89.54
15529;BME280;7866;52.280;9.500;2022-09-29T02:22:49;98762.69;;;8.92;89.78
15529;BME280;7866;52.280;9.500;2022-09-29T02:27:50;98764.34;;;8.93;89.89
15529;BME280;7866;52.280;9.500;2022-09-29T02:32:53;98764.75;;;8.90;89.96
15529;BME280;7866;52.280;9.500;2022-09-29T02:38:02;98764.50;;;8.85;90.51
15529;BME280;7866;52.280;9.500;2022-09-29T02:43:14;98771.44;;;8.79;90.73
15529;BME280;7866;52.280;9.500;2022-09-29T02:54:04;98782.06;;;8.73;90.95
15529;BME280;7866;52.280;9.500;2022-09-29T02:59:13;98780.66;;;8.70;91.06
15529;BME280;7866;52.280;9.500;2022-09-29T03:04:19;98785.56;;;8.73;91.06
15529;BME280;7866;52.280;9.500;2022-09-29T03:09:21;98796.28;;;8.80;91.24
15529;BME280;7866;52.280;9.500;2022-09-29T03:14:23;98792.00;;;8.85;91.25
15529;BME280;7866;52.280;9.500;2022-09-29T03:19:26;98786.50;;;8.87;90.71
15529;BME280;7866;52.280;9.500;2022-09-29T03:24:27;98790.19;;;8.86;90.62
15529;BME280;7866;52.280;9.500;2022-09-29T03:29:30;98783.19;;;8.85;90.86
15529;BME280;7866;52.280;9.500;2022-09-29T03:34:33;98790.19;;;8.86;90.72
15529;BME280;7866;52.280;9.500;2022-09-29T03:39:35;98794.28;;;8.82;90.47
15529;BME280;7866;52.280;9.500;2022-09-29T03:44:37;98796.72;;;8.83;90.58
15529;BME280;7866;52.280;9.500;2022-09-29T03:49:40;98801.25;;;8.83;90.61
15529;BME280;7866;52.280;9.500;2022-09-29T03:54:41;98805.56;;;8.84;90.28
15529;BME280;7866;52.280;9.500;2022-09-29T03:59:43;98807.94;;;8.72;90.40
15529;BME280;7866;52.280;9.500;2022-09-29T04:04:46;98806.47;;;8.70;90.47
15529;BME280;7866;52.280;9.500;2022-09-29T04:09:47;98818.78;;;8.64;90.72
15529;BME280;7866;52.280;9.500;2022-09-29T04:14:49;98822.22;;;8.58;90.81
15529;BME280;7866;52.280;9.500;2022-09-29T04:19:52;98836.53;;;8.50;91.20
15529;BME280;7866;52.280;9.500;2022-09-29T04:24:54;98832.88;;;8.36;91.17
15529;BME280;7866;52.280;9.500;2022-09-29T04:29:56;98828.25;;;8.24;91.77
15529;BME280;7866;52.280;9.500;2022-09-29T04:34:59;98836.75;;;8.12;92.14
15529;BME280;7866;52.280;9.500;2022-09-29T04:40:01;98840.00;;;8.08;92.65
15529;BME280;7866;52.280;9.500;2022-09-29T04:45:04;98836.75;;;7.91;92.80
15529;BME280;7866;52.280;9.500;2022-09-29T04:50:07;98833.13;;;7.77;93.22
15529;BME280;7866;52.280;9.500;2022-09-29T04:55:10;98845.97;;;7.74;93.73
15529;BME280;7866;52.280;9.500;2022-09-29T05:00:12;98853.91;;;7.67;93.73
15529;BME280;7866;52.280;9.500;2022-09-29T05:05:15;98854.66;;;7.61;93.74
15529;BME280;7866;52.280;9.500;2022-09-29T05:10:17;98867.81;;;7.48;93.73
15529;BME280;7866;52.280;9.500;2022-09-29T05:15:19;98862.41;;;7.41;93.68
15529;BME280;7866;52.280;9.500;2022-09-29T05:20:22;98868.38;;;7.43;93.98
15529;BME280;7866;52.280;9.500;2022-09-29T05:25:24;98868.75;;;7.40;94.08
15529;BME280;7866;52.280;9.500;2022-09-29T05:30:26;98867.09;;;7.39;93.95
15529;BME280;7866;52.280;9.500;2022-09-29T05:35:29;98864.53;;;7.31;94.08
15529;BME280;7866;52.280;9.500;2022-09-29T05:40:31;98867.09;;;7.39;93.72
15529;BME280;7866;52.280;9.500;2022-09-29T05:45:32;98880.06;;;7.42;93.61
15529;BME280;7866;52.280;9.500;2022-09-29T05:50:35;98884.81;;;7.32;93.39
15529;BME280;7866;52.280;9.500;2022-09-29T05:55:40;98885.84;;;7.31;93.50
15529;BME280;7866;52.280;9.500;2022-09-29T06:00:42;98893.38;;;7.27;93.36
15529;BME280;7866;52.280;9.500;2022-09-29T06:05:45;98887.66;;;7.45;94.24
15529;BME280;7866;52.280;9.500;2022-09-29T06:10:47;98893.31;;;7.72;93.87
15529;BME280;7866;52.280;9.500;2022-09-29T06:15:48;98890.63;;;7.86;93.73
15529;BME280;7866;52.280;9.500;2022-09-29T06:20:52;98878.28;;;8.22;93.20
15529;BME280;7866;52.280;9.500;2022-09-29T06:25:55;98882.72;;;8.51;92.61
15529;BME280;7866;52.280;9.500;2022-09-29T06:30:58;98888.09;;;8.79;91.60
15529;BME280;7866;52.280;9.500;2022-09-29T06:36:06;98885.31;;;9.28;91.24
15529;BME280;7866;52.280;9.500;2022-09-29T06:41:26;98889.59;;;9.57;89.68
15529;BME280;7866;52.280;9.500;2022-09-29T06:46:29;98891.34;;;9.78;87.76
15529;BME280;7866;52.280;9.500;2022-09-29T06:51:34;98887.69;;;9.93;85.32
15529;BME280;7866;52.280;9.500;2022-09-29T06:56:36;98895.34;;;10.02;85.29
15529;BME280;7866;52.280;9.500;2022-09-29T07:01:38;98902.47;;;9.82;84.29
15529;BME280;7866;52.280;9.500;2022-09-29T07:06:41;98905.31;;;9.80;85.28
15529;BME280;7866;52.280;9.500;2022-09-29T07:11:46;98915.06;;;9.95;86.16
15529;BME280;7866;52.280;9.500;2022-09-29T07:16:49;98913.94;;;9.76;85.42
15529;BME280;7866;52.280;9.500;2022-09-29T07:21:52;98916.00;;;9.74;86.37
15529;BME280;7866;52.280;9.500;2022-09-29T07:26:53;98910.72;;;9.87;86.75
15529;BME280;7866;52.280;9.500;2022-09-29T07:31:55;98921.44;;;9.94;86.65
15529;BME280;7866;52.280;9.500;2022-09-29T07:36:58;98926.41;;;10.03;86.03
15529;BME280;7866;52.280;9.500;2022-09-29T07:42:00;98937.22;;;10.36;86.16
15529;BME280;7866;52.280;9.500;2022-09-29T07:47:02;98938.88;;;10.31;85.69
15529;BME280;7866;52.280;9.500;2022-09-29T07:52:05;98943.56;;;10.29;85.17
15529;BME280;7866;52.280;9.500;2022-09-29T07:57:07;98941.78;;;10.56;85.08
15529;BME280;7866;52.280;9.500;2022-09-29T08:02:10;98951.28;;;10.85;84.57
15529;BME280;7866;52.280;9.500;2022-09-29T08:07:13;98955.84;;;10.91;84.06
15529;BME280;7866;52.280;9.500;2022-09-29T08:12:14;98954.41;;;11.02;82.91
15529;BME280;7866;52.280;9.500;2022-09-29T08:17:16;98959.53;;;10.83;82.49
15529;BME280;7866;52.280;9.500;2022-09-29T08:22:19;98970.88;;;10.92;83.38
15529;BME280;7866;52.280;9.500;2022-09-29T08:27:20;98975.63;;;10.90;83.00
15529;BME280;7866;52.280;9.500;2022-09-29T08:32:22;98977.06;;;10.99;83.28
15529;BME280;7866;52.280;9.500;2022-09-29T08:37:26;98980.38;;;11.28;82.95
15529;BME280;7866;52.280;9.500;2022-09-29T08:42:34;98986.16;;;11.38;81.74
15529;BME280;7866;52.280;9.500;2022-09-29T08:47:44;98982.97;;;11.81;80.44
15529;BME280;7866;52.280;9.500;2022-09-29T08:52:52;98987.50;;;11.94;79.92
15529;BME280;7866;52.280;9.500;2022-09-29T08:57:57;98992.88;;;11.94;79.83
15529;BME280;7866;52.280;9.500;2022-09-29T09:03:11;98993.91;;;12.44;78.94
15529;BME280;7866;52.280;9.500;2022-09-29T09:08:23;98995.97;;;12.42;78.49
15529;BME280;7866;52.280;9.500;2022-09-29T09:13:43;98997.19;;;12.46;78.98
15529;BME280;7866;52.280;9.500;2022-09-29T09:19:02;98999.13;;;12.71;78.40
15529;BME280;7866;52.280;9.500;2022-09-29T09:24:22;99001.69;;;12.91;77.02
15529;BME280;7866;52.280;9.500;2022-09-29T09:29:28;99004.22;;;13.11;77.54
15529;BME280;7866;52.280;9.500;2022-09-29T09:34:36;99007.91;;;13.23;76.52
15529;BME280;7866;52.280;9.500;2022-09-29T09:39:46;99008.13;;;13.46;76.07
15529;BME280;7866;52.280;9.500;2022-09-29T09:44:51;99014.69;;;13.50;75.39
15529;BME280;7866;52.280;9.500;2022-09-29T09:49:57;99004.38;;;13.47;75.56
15529;BME280;7866;52.280;9.500;2022-09-29T09:55:03;99010.53;;;13.54;75.87
15529;BME280;7866;52.280;9.500;2022-09-29T10:00:09;99015.66;;;13.81;74.40
15529;BME280;7866;52.280;9.500;2022-09-29T10:05:14;99020.56;;;13.84;73.11
15529;BME280;7866;52.280;9.500;2022-09-29T10:10:19;99029.41;;;13.91;72.81
15529;BME280;7866;52.280;9.500;2022-09-29T10:15:24;99022.41;;;14.09;72.50
15529;BME280;7866;52.280;9.500;2022-09-29T10:20:32;99025.31;;;14.25;72.35
15529;BME280;7866;52.280;9.500;2022-09-29T10:25:36;99020.88;;;13.94;71.99
15529;BME280;7866;52.280;9.500;2022-09-29T10:30:37;99024.94;;;14.03;72.03
15529;BME280;7866;52.280;9.500;2022-09-29T10:35:40;99024.47;;;14.07;70.81
15529;BME280;7866;52.280;9.500;2022-09-29T10:40:55;99031.56;;;13.83;70.68
15529;BME280;7866;52.280;9.500;2022-09-29T10:45:58;99034.84;;;13.66;73.06
15529;BME280;7866;52.280;9.500;2022-09-29T10:51:01;99028.78;;;13.71;73.80
15529;BME280;7866;52.280;9.500;2022-09-29T10:56:09;99032.63;;;14.00;72.61
15529;BME280;7866;52.280;9.500;2022-09-29T11:01:18;99031.50;;;14.08;72.16
15529;BME280;7866;52.280;9.500;2022-09-29T11:06:25;99032.88;;;14.17;72.40
15529;BME280;7866;52.280;9.500;2022-09-29T11:11:31;99031.06;;;14.11;71.83
15529;BME280;7866;52.280;9.500;2022-09-29T11:16:34;99036.16;;;14.37;71.43
15529;BME280;7866;52.280;9.500;2022-09-29T11:22:01;99038.97;;;14.42;67.00
15529;BME280;7866;52.280;9.500;2022-09-29T11:27:15;99053.03;;;14.08;71.86
15529;BME280;7866;52.280;9.500;2022-09-29T11:32:30;99047.88;;;14.06;73.12
15529;BME280;7866;52.280;9.500;2022-09-29T11:37:47;99052.06;;;14.02;71.33
15529;BME280;7866;52.280;9.500;2022-09-29T11:43:05;99054.63;;;13.97;72.17
15529;BME280;7866;52.280;9.500;2022-09-29T11:48:26;99057.75;;;13.94;71.10
15529;BME280;7866;52.280;9.500;2022-09-29T11:53:43;99058.22;;;14.27;71.46
15529;BME280;7866;52.280;9.500;2022-09-29T11:59:05;99058.56;;;14.68;69.39
15529;BME280;7866;52.280;9.500;2022-09-29T12:04:19;99052.69;;;14.59;68.27
15529;BME280;7866;52.280;9.500;2022-09-29T12:09:39;99061.25;;;14.86;67.80
15529;BME280;7866;52.280;9.500;2022-09-29T12:14:56;99065.09;;;15.09;68.24
15529;BME280;7866;52.280;9.500;2022-09-29T12:20:06;99061.28;;;14.31;70.31
15529;BME280;7866;52.280;9.500;2022-09-29T12:25:16;99060.97;;;14.02;71.21
15529;BME280;7866;52.280;9.500;2022-09-29T12:30:23;99058.31;;;14.21;71.26
15529;BME280;7866;52.280;9.500;2022-09-29T12:35:34;99060.00;;;14.15;72.13
15529;BME280;7866;52.280;9.500;2022-09-29T12:40:40;99066.53;;;14.26;71.86
15529;BME280;7866;52.280;9.500;2022-09-29T12:45:52;99069.81;;;14.28;72.02
15529;BME280;7866;52.280;9.500;2022-09-29T12:51:00;99063.97;;;14.13;71.32
15529;BME280;7866;52.280;9.500;2022-09-29T12:56:08;99069.66;;;14.23;71.66
15529;BME280;7866;52.280;9.500;2022-09-29T13:01:23;99073.03;;;14.37;71.98
15529;BME280;7866;52.280;9.500;2022-09-29T13:06:39;99079.06;;;14.32;71.91
15529;BME280;7866;52.280;9.500;2022-09-29T13:12:02;99077.72;;;14.23;71.73
15529;BME280;7866;52.280;9.500;2022-09-29T13:17:23;99082.16;;;14.17;72.40
15529;BME280;7866;52.280;9.500;2022-09-29T13:22:51;99081.41;;;14.10;72.10
15529;BME280;7866;52.280;9.500;2022-09-29T13:27:58;99083.34;;;14.21;72.21
15529;BME280;7866;52.280;9.500;2022-09-29T13:33:08;99082.38;;;14.16;72.59
15529;BME280;7866;52.280;9.500;2022-09-29T13:38:15;99095.09;;;14.09;73.02
15529;BME280;7866;52.280;9.500;2022-09-29T13:43:35;99082.66;;;14.08;72.95
15529;BME280;7866;52.280;9.500;2022-09-29T13:48:50;99084.53;;;14.07;73.34
15529;BME280;7866;52.280;9.500;2022-09-29T13:54:21;99075.97;;;13.92;74.31
15529;BME280;7866;52.280;9.500;2022-09-29T13:59:24;99081.88;;;13.82;74.82
15529;BME280;7866;52.280;9.500;2022-09-29T14:04:51;99095.78;;;14.41;75.01
15529;BME280;7866;52.280;9.500;2022-09-29T14:09:55;99084.63;;;14.74;72.83
15529;BME280;7866;52.280;9.500;2022-09-29T14:14:58;99088.63;;;15.55;70.38
15529;BME280;7866;52.280;9.500;2022-09-29T14:20:07;99085.44;;;15.76;69.66
15529;BME280;7866;52.280;9.500;2022-09-29T14:25:28;99084.25;;;15.84;67.27
15529;BME280;7866;52.280;9.500;2022-09-29T14:30:41;99085.88;;;15.73;68.78
15529;BME280;7866;52.280;9.500;2022-09-29T14:35:48;99093.88;;;15.38;68.64
15529;BME280;7866;52.280;9.500;2022-09-29T14:40:55;99093.56;;;15.46;67.33
15529;BME280;7866;52.280;9.500;2022-09-29T14:51:52;99101.81;;;14.91;67.29
15529;BME280;7866;52.280;9.500;2022-09-29T14:57:05;99113.66;;;14.72;68.80
15529;BME280;7866;52.280;9.500;2022-09-29T15:02:19;99108.19;;;14.42;70.24
15529;BME280;7866;52.280;9.500;2022-09-29T15:07:25;99106.16;;;14.19;71.78
15529;BME280;7866;52.280;9.500;2022-09-29T15:12:29;99116.53;;;13.72;74.47
15529;BME280;7866;52.280;9.500;2022-09-29T15:17:41;99108.59;;;13.52;75.97
15529;BME280;7866;52.280;9.500;2022-09-29T15:23:29;99121.63;;;13.23;76.99
15529;BME280;7866;52.280;9.500;2022-09-29T15:28:44;99122.94;;;13.07;78.43
15529;BME280;7866;52.280;9.500;2022-09-29T15:33:46;99132.97;;;12.87;79.17
15529;BME280;7866;52.280;9.500;2022-09-29T15:38:51;99130.91;;;12.89;79.34
15529;BME280;7866;52.280;9.500;2022-09-29T15:43:56;99137.50;;;12.87;79.14
15529;BME280;7866;52.280;9.500;2022-09-29T15:49:10;99149.16;;;12.74;79.49
15529;BME280;7866;52.280;9.500;2022-09-29T15:54:13;99150.84;;;12.55;79.87
15529;BME280;7866;52.280;9.500;2022-09-29T15:59:18;99156.47;;;12.40;80.03
15529;BME280;7866;52.280;9.500;2022-09-29T16:04:20;99157.72;;;12.24;80.69
15529;BME280;7866;52.280;9.500;2022-09-29T16:09:22;99162.94;;;12.06;81.09
15529;BME280;7866;52.280;9.500;2022-09-29T16:14:27;99171.16;;;12.04;81.45
15529;BME280;7866;52.280;9.500;2022-09-29T16:19:31;99182.31;;;11.95;81.88
15529;BME280;7866;52.280;9.500;2022-09-29T16:24:35;99179.03;;;11.86;81.43
15529;BME280;7866;52.280;9.500;2022-09-29T16:29:38;99189.31;;;11.69;81.87
15529;BME280;7866;52.280;9.500;2022-09-29T16:34:40;99195.06;;;11.59;82.30
15529;BME280;7866;52.280;9.500;2022-09-29T16:39:43;99197.09;;;11.44;82.48
15529;BME280;7866;52.280;9.500;2022-09-29T16:44:48;99203.25;;;11.31;83.15
15529;BME280;7866;52.280;9.500;2022-09-29T16:49:51;99201.56;;;11.17;83.20
15529;BME280;7866;52.280;9.500;2022-09-29T16:55:05;99207.53;;;11.19;83.21
15529;BME280;7866;52.280;9.500;2022-09-29T17:00:11;99206.06;;;11.10;83.60
15529;BME280;7866;52.280;9.500;2022-09-29T17:05:13;99222.50;;;11.00;83.89
15529;BME280;7866;52.280;9.500;2022-09-29T17:10:17;99224.69;;;10.83;84.27
15529;BME280;7866;52.280;9.500;2022-09-29T17:15:21;99231.03;;;10.76;85.28
15529;BME280;7866;52.280;9.500;2022-09-29T17:20:24;99241.91;;;10.68;85.58
15529;BME280;7866;52.280;9.500;2022-09-29T17:25:28;99245.13;;;10.56;85.55
15529;BME280;7866;52.280;9.500;2022-09-29T17:30:31;99247.47;;;10.38;85.82
15529;BME280;7866;52.280;9.500;2022-09-29T17:35:36;99253.22;;;10.35;86.54
15529;BME280;7866;52.280;9.500;2022-09-29T17:40:48;99259.53;;;10.27;85.81
15529;BME280;7866;52.280;9.500;2022-09-29T17:45:53;99262.13;;;10.21;86.25
15529;BME280;7866;52.280;9.500;2022-09-29T17:50:56;99264.34;;;10.17;86.54
15529;BME280;7866;52.280;9.500;2022-09-29T17:55:59;99276.78;;;10.25;86.45
15529;BME280;7866;52.280;9.500;2022-09-29T18:01:03;99270.97;;;10.21;85.61
15529;BME280;7866;52.280;9.500;2022-09-29T18:06:05;99270.88;;;10.08;85.76
15529;BME280;7866;52.280;9.500;2022-09-29T18:11:08;99283.53;;;9.99;85.86
15529;BME280;7866;52.280;9.500;2022-09-29T18:16:13;99275.91;;;9.96;85.96
15529;BME280;7866;52.280;9.500;2022-09-29T18:21:14;99279.53;;;9.88;86.45
15529;BME280;7866;52.280;9.500;2022-09-29T18:26:17;99280.34;;;9.89;86.15
15529;BME280;7866;52.280;9.500;2022-09-29T18:31:26;99288.78;;;9.86;85.35
15529;BME280;7866;52.280;9.500;2022-09-29T18:36:29;99295.91;;;9.79;86.40
15529;BME280;7866;52.280;9.500;2022-09-29T18:41:30;99305.09;;;9.76;86.35
15529;BME280;7866;52.280;9.500;2022-09-29T18:46:35;99304.75;;;9.79;86.22
15529;BME280;7866;52.280;9.500;2022-09-29T18:51:37;99306.97;;;9.76;86.79
15529;BME280;7866;52.280;9.500;2022-09-29T18:56:39;99314.97;;;9.76;86.34
15529;BME280;7866;52.280;9.500;2022-09-29T19:01:42;99316.25;;;9.80;86.59
15529;BME280;7866;52.280;9.500;2022-09-29T19:06:44;99322.44;;;9.80;86.63
15529;BME280;7866;52.280;9.500;2022-09-29T19:11:46;99330.00;;;9.77;86.62
15529;BME280;7866;52.280;9.500;2022-09-29T19:16:50;99335.09;;;9.72;86.75
15529;BME280;7866;52.280;9.500;2022-09-29T19:21:54;99350.50;;;9.70;86.44
15529;BME280;7866;52.280;9.500;2022-09-29T19:26:56;99355.66;;;9.71;87.01
15529;BME280;7866;52.280;9.500;2022-09-29T19:31:59;99357.13;;;9.74;86.73
15529;BME280;7866;52.280;9.500;2022-09-29T19:37:01;99364.69;;;9.70;86.58
15529;BME280;7866;52.280;9.500;2022-09-29T19:42:03;99369.84;;;9.72;86.45
15529;BME280;7866;52.280;9.500;2022-09-29T19:47:06;99366.72;;;9.68;86.99
15529;BME280;7866;52.280;9.500;2022-09-29T19:52:08;99372.16;;;9.75;87.18
15529;BME280;7866;52.280;9.500;2022-09-29T19:57:11;99368.09;;;9.79;86.67
15529;BME280;7866;52.280;9.500;2022-09-29T20:02:15;99380.34;;;9.73;86.44
15529;BME280;7866;52.280;9.500;2022-09-29T20:07:17;99371.50;;;9.73;87.20
15529;BME280;7866;52.280;9.500;2022-09-29T20:12:18;99377.03;;;9.71;87.30
15529;BME280;7866;52.280;9.500;2022-09-29T20:17:21;99386.91;;;9.71;86.80
15529;BME280;7866;52.280;9.500;2022-09-29T20:22:24;99381.56;;;9.71;87.48
15529;BME280;7866;52.280;9.500;2022-09-29T20:27:26;99387.19;;;9.61;87.14
15529;BME280;7866;52.280;9.500;2022-09-29T20:32:30;99386.09;;;9.55;86.77
15529;BME280;7866;52.280;9.500;2022-09-29T20:37:32;99395.78;;;9.56;87.43
15529;BME280;7866;52.280;9.500;2022-09-29T20:42:35;99401.13;;;9.56;86.91
15529;BME280;7866;52.280;9.500;2022-09-29T20:47:38;99410.34;;;9.54;87.55
15529;BME280;7866;52.280;9.500;2022-09-29T20:52:40;99420.13;;;9.61;86.84
15529;BME280;7866;52.280;9.500;2022-09-29T20:57:42;99416.13;;;9.57;86.99
15529;BME280;7866;52.280;9.500;2022-09-29T21:02:47;99419.56;;;9.51;87.21
15529;BME280;7866;52.280;9.500;2022-09-29T21:07:49;99430.81;;;9.61;86.97
15529;BME280;7866;52.280;9.500;2022-09-29T21:12:50;99433.50;;;9.61;87.00
15529;BME280;7866;52.280;9.500;2022-09-29T21:17:55;99444.91;;;9.55;87.04
15529;BME280;7866;52.280;9.500;2022-09-29T21:22:56;99443.88;;;9.71;86.71
15529;BME280;7866;52.280;9.500;2022-09-29T21:27:58;99442.13;;;9.63;85.98
15529;BME280;7866;52.280;9.500;2022-09-29T21:33:02;99445.72;;;9.71;86.10
15529;BME280;7866;52.280;9.500;2022-09-29T21:38:04;99454.13;;;9.68;86.02
15529;BME280;7866;52.280;9.500;2022-09-29T21:43:06;99453.28;;;9.67;86.35
15529;BME280;7866;52.280;9.500;2022-09-29T21:48:09;99454.47;;;9.65;86.13
15529;BME280;7866;52.280;9.500;2022-09-29T21:53:11;99455.13;;;9.67;86.41
15529;BME280;7866;52.280;9.500;2022-09-29T21:58:12;99459.38;;;9.76;85.71
15529;BME280;7866;52.280;9.500;2022-09-29T22:03:16;99460.75;;;9.86;85.12
15529;BME280;7866;52.280;9.500;2022-09-29T22:08:18;99465.06;;;10.02;83.86
15529;BME280;7866;52.280;9.500;2022-09-29T22:13:21;99467.53;;;10.04;82.85
15529;BME280;7866;52.280;9.500;2022-09-29T22:18:25;99474.06;;;10.16;82.48
15529;BME280;7866;52.280;9.500;2022-09-29T22:23:29;99482.66;;;10.11;82.84
15529;BME280;7866;52.280;9.500;2022-09-29T22:28:31;99479.97;;;10.11;83.16
15529;BME280;7866;52.280;9.500;2022-09-29T22:33:34;99482.56;;;10.20;82.76
15529;BME280;7866;52.280;9.500;2022-09-29T22:38:38;99477.50;;;10.25;81.85
15529;BME280;7866;52.280;9.500;2022-09-29T22:43:42;99480.06;;;10.18;82.16
15529;BME280;7866;52.280;9.500;2022-09-29T22:48:45;99482.41;;;10.06;82.54
15529;BME280;7866;52.280;9.500;2022-09-29T22:53:47;99481.47;;;9.99;82.98
15529;BME280;7866;52.280;9.500;2022-09-29T22:58:49;99492.84;;;9.86;83.41
15529;BME280;7866;52.280;9.500;2022-09-29T23:03:52;99483.69;;;9.81;84.55
15529;BME280;7866;52.280;9.500;2022-09-29T23:08:54;99484.47;;;9.75;85.10
15529;BME280;7866;52.280;9.500;2022-09-29T23:13:56;99484.00;;;9.71;84.98
15529;BME280;7866;52.280;9.500;2022-09-29T23:19:01;99485.00;;;9.70;85.31
15529;BME280;7866;52.280;9.500;2022-09-29T23:24:03;99492.31;;;9.61;85.08
15529;BME280;7866;52.280;9.500;2022-09-29T23:29:06;99485.94;;;9.62;85.37
15529;BME280;7866;52.280;9.500;2022-09-29T23:34:10;99496.97;;;9.59;85.15
15529;BME280;7866;52.280;9.500;2022-09-29T23:39:12;99505.44;;;9.48;85.31
15529;BME280;7866;52.280;9.500;2022-09-29T23:44:16;99499.28;;;9.48;85.43
15529;BME280;7866;52.280;9.500;2022-09-29T23:49:21;99503.78;;;9.47;85.88
15529;BME280;7866;52.280;9.500;2022-09-29T23:54:25;99509.84;;;9.41;85.93
15529;BME280;7866;52.280;9.500;2022-09-29T23:59:27;99519.31;;;9.29;85.75
